sensor_id;sensor_type;location;lat;lon;timestamp;pressure;altitude;pressure_sealevel;temperature;humidity
4133;BME280;2080;51.038;7.008;2023-03-20T00:01:44;76669.97;;;-142.53;100.00
4133;BME280;2080;51.038;7.008;2023-03-20T00:04:15;76669.97;;;-142.53;100.00
4133;BME280;2080;51.038;7.008;2023-03-20T00:06:45;76699.13;;;-142.53;100.00
4133;BME280;2080;51.038;7.008;2023-03-20T00:09:10;76685.50;;;-142.53;100.00
4133;BME280;2080;51.038;7.008;2023-03-20T00:11:46;76681.63;;;-142.53;100.00
4133;BME280;2080;51.038;7.008;2023-03-20T00:14:14;76693.28;;;-142.53;100.00
4133;BME280;2080;51.038;7.008;2023-03-20T00:16:44;76708.81;;;-142.53;100.00
4133;BME280;2080;51.038;7.008;2023-03-20T00:19:23;76701.06;;;-142.53;100.00
4133;BME280;2080;51.038;7.008;2023-03-20T00:21:53;76699.13;;;-142.53;100.00
4133;BME280;2080;51.038;7.008;2023-03-20T00:24:19;76701.06;;;-142.53;100.00
4133;BME280;2080;51.038;7.008;2023-03-20T00:26:47;76704.94;;;-142.53;100.00
4133;BME280;2080;51.038;7.008;2023-03-20T00:31:48;76720.47;;;-142.53;100.00
4133;BME280;2080;51.038;7.008;2023-03-20T00:34:16;76714.66;;;-142.53;100.00
4133;BME280;2080;51.038;7.008;2023-03-20T00:36:42;76693.28;;;-142.53;100.00
4133;BME280;2080;51.038;7.008;2023-03-20T00:39:08;76701.06;;;-142.53;100.00
4133;BME280;2080;51.038;7.008;2023-03-20T00:46:53;76720.47;;;-142.53;100.00
4133;BME280;2080;51.038;7.008;2023-03-20T00:49:22;76716.59;;;-142.53;100.00
4133;BME280;2080;51.038;7.008;2023-03-20T00:51:54;76736.03;;;-142.53;100.00
4133;BME280;2080;51.038;7.008;2023-03-20T00:54:22;76716.59;;;-142.53;100.00
4133;BME280;2080;51.038;7.008;2023-03-20T00:57:04;76720.47;;;-142.53;100.00
4133;BME280;2080;51.038;7.008;2023-03-20T00:59:37;76743.78;;;-142.53;100.00
4133;BME280;2080;51.038;7.008;2023-03-20T01:02:07;76722.41;;;-142.53;100.00
4133;BME280;2080;51.038;7.008;2023-03-20T01:04:39;76716.59;;;-142.53;100.00
4133;BME280;2080;51.038;7.008;2023-03-20T01:07:08;76704.94;;;-142.53;100.00
4133;BME280;2080;51.038;7.008;2023-03-20T01:09:37;76712.72;;;-142.53;100.00
4133;BME280;2080;51.038;7.008;2023-03-20T01:12:05;76716.59;;;-142.53;100.00
4133;BME280;2080;51.038;7.008;2023-03-20T01:14:33;76728.25;;;-142.53;100.00
4133;BME280;2080;51.038;7.008;2023-03-20T01:17:01;76720.47;;;-142.53;100.00
4133;BME280;2080;51.038;7.008;2023-03-20T01:19:31;76724.38;;;-142.53;100.00
4133;BME280;2080;51.038;7.008;2023-03-20T01:21:57;76712.72;;;-142.53;100.00
4133;BME280;2080;51.038;7.008;2023-03-20T01:24:22;76710.75;;;-142.53;100.00
4133;BME280;2080;51.038;7.008;2023-03-20T01:26:50;76704.94;;;-142.53;100.00
4133;BME280;2080;51.038;7.008;2023-03-20T01:29:22;76701.06;;;-142.53;100.00
4133;BME280;2080;51.038;7.008;2023-03-20T01:31:53;76706.88;;;-142.53;100.00
4133;BME280;2080;51.038;7.008;2023-03-20T01:34:21;76701.06;;;-142.53;100.00
4133;BME280;2080;51.038;7.008;2023-03-20T01:36:50;76689.41;;;-142.53;100.00
4133;BME280;2080;51.038;7.008;2023-03-20T01:39:18;76697.16;;;-142.53;100.00
4133;BME280;2080;51.038;7.008;2023-03-20T01:41:46;76701.06;;;-142.53;100.00
4133;BME280;2080;51.038;7.008;2023-03-20T01:44:33;76697.16;;;-142.53;100.00
4133;BME280;2080;51.038;7.008;2023-03-20T01:47:01;76701.06;;;-142.53;100.00
4133;BME280;2080;51.038;7.008;2023-03-20T01:51:53;76708.81;;;-142.53;100.00
4133;BME280;2080;51.038;7.008;2023-03-20T01:54:26;76693.28;;;-142.53;100.00
4133;BME280;2080;51.038;7.008;2023-03-20T01:59:27;76708.81;;;-142.53;100.00
4133;BME280;2080;51.038;7.008;2023-03-20T02:01:55;76699.13;;;-142.53;100.00
4133;BME280;2080;51.038;7.008;2023-03-20T02:04:24;76710.75;;;-142.53;100.00
4133;BME280;2080;51.038;7.008;2023-03-20T02:06:55;76716.59;;;-142.53;100.00
4133;BME280;2080;51.038;7.008;2023-03-20T02:09:23;76720.47;;;-142.53;100.00
4133;BME280;2080;51.038;7.008;2023-03-20T02:11:48;76708.81;;;-142.53;100.00
4133;BME280;2080;51.038;7.008;2023-03-20T02:14:17;76708.81;;;-142.53;100.00
4133;BME280;2080;51.038;7.008;2023-03-20T02:16:42;76706.88;;;-142.53;100.00
4133;BME280;2080;51.038;7.008;2023-03-20T02:19:15;76712.72;;;-142.53;100.00
4133;BME280;2080;51.038;7.008;2023-03-20T02:28:03;76739.91;;;-142.53;100.00
4133;BME280;2080;51.038;7.008;2023-03-20T02:42:30;76689.41;;;-142.53;100.00
4133;BME280;2080;51.038;7.008;2023-03-20T02:47:40;76691.34;;;-142.53;100.00
4133;BME280;2080;51.038;7.008;2023-03-20T02:50:36;76681.63;;;-142.53;100.00
4133;BME280;2080;51.038;7.008;2023-03-20T03:01:34;76687.47;;;-142.53;100.00
4133;BME280;2080;51.038;7.008;2023-03-20T03:04:08;76716.59;;;-142.53;100.00
4133;BME280;2080;51.038;7.008;2023-03-20T03:06:38;76730.19;;;-142.53;100.00
4133;BME280;2080;51.038;7.008;2023-03-20T03:09:15;76720.47;;;-142.53;100.00
4133;BME280;2080;51.038;7.008;2023-03-20T03:11:55;76712.72;;;-142.53;100.00
4133;BME280;2080;51.038;7.008;2023-03-20T03:17:07;76726.31;;;-142.53;100.00
4133;BME280;2080;51.038;7.008;2023-03-20T03:19:35;76732.13;;;-142.53;100.00
4133;BME280;2080;51.038;7.008;2023-03-20T03:22:03;76724.38;;;-142.53;100.00
4133;BME280;2080;51.038;7.008;2023-03-20T03:24:33;76724.38;;;-142.53;100.00
4133;BME280;2080;51.038;7.008;2023-03-20T03:27:03;76724.38;;;-142.53;100.00
4133;BME280;2080;51.038;7.008;2023-03-20T03:29:33;76732.13;;;-142.53;100.00
4133;BME280;2080;51.038;7.008;2023-03-20T03:32:02;76739.91;;;-142.53;100.00
4133;BME280;2080;51.038;7.008;2023-03-20T03:34:33;76730.19;;;-142.53;100.00
4133;BME280;2080;51.038;7.008;2023-03-20T03:37:23;76710.75;;;-142.53;100.00
4133;BME280;2080;51.038;7.008;2023-03-20T03:39:56;76693.28;;;-142.53;100.00
4133;BME280;2080;51.038;7.008;2023-03-20T03:47:53;76712.72;;;-142.53;100.00
4133;BME280;2080;51.038;7.008;2023-03-20T03:50:24;76724.38;;;-142.53;100.00
4133;BME280;2080;51.038;7.008;2023-03-20T03:52:57;76724.38;;;-142.53;100.00
4133;BME280;2080;51.038;7.008;2023-03-20T03:55:31;76736.03;;;-142.53;100.00
4133;BME280;2080;51.038;7.008;2023-03-20T03:58:26;76737.97;;;-142.53;100.00
4133;BME280;2080;51.038;7.008;2023-03-20T04:00:56;76755.44;;;-142.53;100.00
4133;BME280;2080;51.038;7.008;2023-03-20T04:03:31;76753.50;;;-142.53;100.00
4133;BME280;2080;51.038;7.008;2023-03-20T04:06:02;76751.56;;;-142.53;100.00
4133;BME280;2080;51.038;7.008;2023-03-20T04:08:34;76743.78;;;-142.53;100.00
4133;BME280;2080;51.038;7.008;2023-03-20T04:11:00;76732.13;;;-142.53;100.00
4133;BME280;2080;51.038;7.008;2023-03-20T04:13:25;76732.13;;;-142.53;100.00
4133;BME280;2080;51.038;7.008;2023-03-20T04:15:53;76743.78;;;-142.53;100.00
4133;BME280;2080;51.038;7.008;2023-03-20T04:18:21;76763.22;;;-142.53;100.00
4133;BME280;2080;51.038;7.008;2023-03-20T04:20:47;76736.03;;;-142.53;100.00
4133;BME280;2080;51.038;7.008;2023-03-20T04:23:13;76759.34;;;-142.53;100.00
4133;BME280;2080;51.038;7.008;2023-03-20T04:25:41;76767.09;;;-142.53;100.00
4133;BME280;2080;51.038;7.008;2023-03-20T04:28:06;76767.09;;;-142.53;100.00
4133;BME280;2080;51.038;7.008;2023-03-20T04:30:32;76765.16;;;-142.53;100.00
4133;BME280;2080;51.038;7.008;2023-03-20T04:32:58;76770.97;;;-142.53;100.00
4133;BME280;2080;51.038;7.008;2023-03-20T04:35:23;76780.69;;;-142.53;100.00
4133;BME280;2080;51.038;7.008;2023-03-20T04:37:51;76770.97;;;-142.53;100.00
4133;BME280;2080;51.038;7.008;2023-03-20T04:40:16;76774.88;;;-142.53;100.00
4133;BME280;2080;51.038;7.008;2023-03-20T04:42:44;76769.03;;;-142.53;100.00
4133;BME280;2080;51.038;7.008;2023-03-20T04:45:09;76770.97;;;-142.53;100.00
4133;BME280;2080;51.038;7.008;2023-03-20T04:47:37;76767.09;;;-142.53;100.00
4133;BME280;2080;51.038;7.008;2023-03-20T04:50:03;76778.75;;;-142.53;100.00
4133;BME280;2080;51.038;7.008;2023-03-20T04:52:28;76800.13;;;-142.53;100.00
4133;BME280;2080;51.038;7.008;2023-03-20T04:54:53;76809.84;;;-142.53;100.00
4133;BME280;2080;51.038;7.008;2023-03-20T04:57:24;76813.72;;;-142.53;100.00
4133;BME280;2080;51.038;7.008;2023-03-20T04:59:49;76817.59;;;-142.53;100.00
4133;BME280;2080;51.038;7.008;2023-03-20T05:02:14;76817.59;;;-142.53;100.00
4133;BME280;2080;51.038;7.008;2023-03-20T05:04:41;76825.38;;;-142.53;100.00
4133;BME280;2080;51.038;7.008;2023-03-20T05:07:07;76829.25;;;-142.53;100.00
4133;BME280;2080;51.038;7.008;2023-03-20T05:09:32;76837.03;;;-142.53;100.00
4133;BME280;2080;51.038;7.008;2023-03-20T05:11:58;76848.69;;;-142.53;100.00
4133;BME280;2080;51.038;7.008;2023-03-20T05:14:23;76848.69;;;-142.53;100.00
4133;BME280;2080;51.038;7.008;2023-03-20T05:16:48;76844.81;;;-142.53;100.00
4133;BME280;2080;51.038;7.008;2023-03-20T05:19:14;76829.25;;;-142.53;100.00
4133;BME280;2080;51.038;7.008;2023-03-20T05:21:39;76833.16;;;-142.53;100.00
4133;BME280;2080;51.038;7.008;2023-03-20T05:24:08;76829.25;;;-142.53;100.00
4133;BME280;2080;51.038;7.008;2023-03-20T05:26:33;76840.91;;;-142.53;100.00
4133;BME280;2080;51.038;7.008;2023-03-20T05:29:01;76838.97;;;-142.53;100.00
4133;BME280;2080;51.038;7.008;2023-03-20T05:31:26;76840.91;;;-142.53;100.00
4133;BME280;2080;51.038;7.008;2023-03-20T05:33:55;76852.56;;;-142.53;100.00
4133;BME280;2080;51.038;7.008;2023-03-20T05:36:21;76860.34;;;-142.53;100.00
4133;BME280;2080;51.038;7.008;2023-03-20T05:38:49;76866.16;;;-142.53;100.00
4133;BME280;2080;51.038;7.008;2023-03-20T05:41:14;76868.13;;;-142.53;100.00
4133;BME280;2080;51.038;7.008;2023-03-20T05:43:40;76879.78;;;-142.53;100.00
4133;BME280;2080;51.038;7.008;2023-03-20T05:46:06;76883.66;;;-142.53;100.00
4133;BME280;2080;51.038;7.008;2023-03-20T05:48:31;76881.72;;;-142.53;100.00
4133;BME280;2080;51.038;7.008;2023-03-20T05:50:59;76881.72;;;-142.53;100.00
4133;BME280;2080;51.038;7.008;2023-03-20T05:53:27;76879.78;;;-142.53;100.00
4133;BME280;2080;51.038;7.008;2023-03-20T05:55:52;76866.16;;;-142.53;100.00
4133;BME280;2080;51.038;7.008;2023-03-20T05:58:20;76866.16;;;-142.53;100.00
4133;BME280;2080;51.038;7.008;2023-03-20T06:00:45;76856.47;;;-142.53;100.00
4133;BME280;2080;51.038;7.008;2023-03-20T06:03:11;76848.69;;;-142.53;100.00
4133;BME280;2080;51.038;7.008;2023-03-20T06:05:36;76846.75;;;-142.53;100.00
4133;BME280;2080;51.038;7.008;2023-03-20T06:08:02;76844.81;;;-142.53;100.00
4133;BME280;2080;51.038;7.008;2023-03-20T06:10:28;76848.69;;;-142.53;100.00
4133;BME280;2080;51.038;7.008;2023-03-20T06:12:55;76846.75;;;-142.53;100.00
4133;BME280;2080;51.038;7.008;2023-03-20T06:15:21;76838.97;;;-142.53;100.00
4133;BME280;2080;51.038;7.008;2023-03-20T06:17:46;76833.16;;;-142.53;100.00
4133;BME280;2080;51.038;7.008;2023-03-20T06:20:14;76844.81;;;-142.53;100.00
4133;BME280;2080;51.038;7.008;2023-03-20T06:22:42;76837.03;;;-142.53;100.00
4133;BME280;2080;51.038;7.008;2023-03-20T06:25:11;76817.59;;;-142.53;100.00
4133;BME280;2080;51.038;7.008;2023-03-20T06:27:36;76817.59;;;-142.53;100.00
4133;BME280;2080;51.038;7.008;2023-03-20T06:30:04;76811.78;;;-142.53;100.00
4133;BME280;2080;51.038;7.008;2023-03-20T06:32:32;76805.94;;;-142.53;100.00
4133;BME280;2080;51.038;7.008;2023-03-20T06:34:57;76800.13;;;-142.53;100.00
4133;BME280;2080;51.038;7.008;2023-03-20T06:37:23;76813.72;;;-142.53;100.00
4133;BME280;2080;51.038;7.008;2023-03-20T06:39:48;76804.00;;;-142.53;100.00
4133;BME280;2080;51.038;7.008;2023-03-20T06:42:16;76786.53;;;-142.53;100.00
4133;BME280;2080;51.038;7.008;2023-03-20T06:44:42;76786.53;;;-142.53;100.00
4133;BME280;2080;51.038;7.008;2023-03-20T06:47:08;76770.97;;;-142.53;100.00
4133;BME280;2080;51.038;7.008;2023-03-20T06:49:33;76772.94;;;-142.53;100.00
4133;BME280;2080;51.038;7.008;2023-03-20T06:51:58;76794.28;;;-142.53;100.00
4133;BME280;2080;51.038;7.008;2023-03-20T06:54:29;76790.41;;;-142.53;100.00
4133;BME280;2080;51.038;7.008;2023-03-20T06:56:54;76813.72;;;-142.53;100.00
4133;BME280;2080;51.038;7.008;2023-03-20T06:59:22;76821.50;;;-142.53;100.00
4133;BME280;2080;51.038;7.008;2023-03-20T07:01:49;76798.19;;;-142.53;100.00
4133;BME280;2080;51.038;7.008;2023-03-20T07:04:19;76782.63;;;-142.53;100.00
4133;BME280;2080;51.038;7.008;2023-03-20T07:06:47;76776.81;;;-142.53;100.00
4133;BME280;2080;51.038;7.008;2023-03-20T07:09:12;76751.56;;;-142.53;100.00
4133;BME280;2080;51.038;7.008;2023-03-20T07:11:41;76753.50;;;-142.53;100.00
4133;BME280;2080;51.038;7.008;2023-03-20T07:14:09;76737.97;;;-142.53;100.00
4133;BME280;2080;51.038;7.008;2023-03-20T07:16:34;76757.38;;;-142.53;100.00
4133;BME280;2080;51.038;7.008;2023-03-20T07:19:00;76743.78;;;-142.53;100.00
4133;BME280;2080;51.038;7.008;2023-03-20T07:21:26;76732.13;;;-142.53;100.00
4133;BME280;2080;51.038;7.008;2023-03-20T07:23:55;76724.38;;;-142.53;100.00
4133;BME280;2080;51.038;7.008;2023-03-20T07:26:21;76714.66;;;-142.53;100.00
4133;BME280;2080;51.038;7.008;2023-03-20T07:28:51;76708.81;;;-142.53;100.00
4133;BME280;2080;51.038;7.008;2023-03-20T07:31:24;76693.28;;;-142.53;100.00
4133;BME280;2080;51.038;7.008;2023-03-20T07:33:50;76685.50;;;-142.53;100.00
4133;BME280;2080;51.038;7.008;2023-03-20T07:36:16;76666.09;;;-142.53;100.00
4133;BME280;2080;51.038;7.008;2023-03-20T07:38:43;76673.84;;;-142.53;100.00
4133;BME280;2080;51.038;7.008;2023-03-20T07:41:09;76662.19;;;-142.53;100.00
4133;BME280;2080;51.038;7.008;2023-03-20T07:43:37;76662.19;;;-142.53;100.00
4133;BME280;2080;51.038;7.008;2023-03-20T07:46:06;76646.66;;;-142.53;100.00
4133;BME280;2080;51.038;7.008;2023-03-20T07:48:32;76662.19;;;-142.53;100.00
4133;BME280;2080;51.038;7.008;2023-03-20T07:50:57;76669.97;;;-142.53;100.00
4133;BME280;2080;51.038;7.008;2023-03-20T07:53:23;76662.19;;;-142.53;100.00
4133;BME280;2080;51.038;7.008;2023-03-20T07:55:48;76654.44;;;-142.53;100.00
4133;BME280;2080;51.038;7.008;2023-03-20T07:58:13;76635.00;;;-142.53;100.00
4133;BME280;2080;51.038;7.008;2023-03-20T08:00:44;76623.34;;;-142.53;100.00
4133;BME280;2080;51.038;7.008;2023-03-20T08:03:13;76650.56;;;-142.53;100.00
4133;BME280;2080;51.038;7.008;2023-03-20T08:05:39;76660.25;;;-142.53;100.00
4133;BME280;2080;51.038;7.008;2023-03-20T08:08:05;76654.44;;;-142.53;100.00
4133;BME280;2080;51.038;7.008;2023-03-20T08:10:30;76644.72;;;-142.53;100.00
4133;BME280;2080;51.038;7.008;2023-03-20T08:12:55;76642.78;;;-142.53;100.00
4133;BME280;2080;51.038;7.008;2023-03-20T08:15:21;76642.78;;;-142.53;100.00
4133;BME280;2080;51.038;7.008;2023-03-20T08:17:46;76619.47;;;-142.53;100.00
4133;BME280;2080;51.038;7.008;2023-03-20T08:20:13;76636.94;;;-142.53;100.00
4133;BME280;2080;51.038;7.008;2023-03-20T08:22:43;76642.78;;;-142.53;100.00
4133;BME280;2080;51.038;7.008;2023-03-20T08:25:09;76662.19;;;-142.53;100.00
4133;BME280;2080;51.038;7.008;2023-03-20T08:27:35;76640.84;;;-142.53;100.00
4133;BME280;2080;51.038;7.008;2023-03-20T08:30:00;76640.84;;;-142.53;100.00
4133;BME280;2080;51.038;7.008;2023-03-20T08:32:26;76646.66;;;-142.53;100.00
4133;BME280;2080;51.038;7.008;2023-03-20T08:34:51;76652.50;;;-142.53;100.00
4133;BME280;2080;51.038;7.008;2023-03-20T08:37:21;76623.34;;;-142.53;100.00
4133;BME280;2080;51.038;7.008;2023-03-20T08:39:49;76623.34;;;-142.53;100.00
4133;BME280;2080;51.038;7.008;2023-03-20T08:42:15;76638.91;;;-142.53;100.00
4133;BME280;2080;51.038;7.008;2023-03-20T08:44:43;76611.69;;;-142.53;100.00
4133;BME280;2080;51.038;7.008;2023-03-20T08:47:10;76576.72;;;-142.53;100.00
4133;BME280;2080;51.038;7.008;2023-03-20T08:49:36;76576.72;;;-142.53;100.00
4133;BME280;2080;51.038;7.008;2023-03-20T08:52:02;76576.72;;;-142.53;100.00
4133;BME280;2080;51.038;7.008;2023-03-20T08:54:27;76555.38;;;-142.53;100.00
4133;BME280;2080;51.038;7.008;2023-03-20T08:56:53;76541.78;;;-142.53;100.00
4133;BME280;2080;51.038;7.008;2023-03-20T08:59:18;76518.47;;;-142.53;100.00
4133;BME280;2080;51.038;7.008;2023-03-20T09:01:48;76462.13;;;-142.53;100.00
4133;BME280;2080;51.038;7.008;2023-03-20T09:04:16;76534.00;;;-142.53;100.00
4133;BME280;2080;51.038;7.008;2023-03-20T09:06:42;76557.31;;;-142.53;100.00
4133;BME280;2080;51.038;7.008;2023-03-20T09:09:10;76541.78;;;-142.53;100.00
4133;BME280;2080;51.038;7.008;2023-03-20T09:11:37;76568.97;;;-142.53;100.00
4133;BME280;2080;51.038;7.008;2023-03-20T09:14:03;76565.09;;;-142.53;100.00
4133;BME280;2080;51.038;7.008;2023-03-20T09:16:28;76541.78;;;-142.53;100.00
4133;BME280;2080;51.038;7.008;2023-03-20T09:18:53;76534.00;;;-142.53;100.00
4133;BME280;2080;51.038;7.008;2023-03-20T09:21:24;76541.78;;;-142.53;100.00
4133;BME280;2080;51.038;7.008;2023-03-20T09:23:51;76526.22;;;-142.53;100.00
4133;BME280;2080;51.038;7.008;2023-03-20T09:26:17;76532.06;;;-142.53;100.00
4133;BME280;2080;51.038;7.008;2023-03-20T09:28:42;76489.31;;;-142.53;100.00
4133;BME280;2080;51.038;7.008;2023-03-20T09:31:12;76483.50;;;-142.53;100.00
4133;BME280;2080;51.038;7.008;2023-03-20T09:33:42;76483.50;;;-142.53;100.00
4133;BME280;2080;51.038;7.008;2023-03-20T09:36:11;76514.56;;;-142.53;100.00
4133;BME280;2080;51.038;7.008;2023-03-20T09:38:42;76493.22;;;-142.53;100.00
4133;BME280;2080;51.038;7.008;2023-03-20T09:41:16;76479.63;;;-142.53;100.00
4133;BME280;2080;51.038;7.008;2023-03-20T09:52:15;76440.78;;;-142.53;93.58
4133;BME280;2080;51.038;7.008;2023-03-20T09:54:47;76401.91;;;-142.53;100.00
4133;BME280;2080;51.038;7.008;2023-03-20T09:57:20;76405.81;;;-142.53;98.38
4133;BME280;2080;51.038;7.008;2023-03-20T09:59:49;76405.81;;;-142.53;99.50
4133;BME280;2080;51.038;7.008;2023-03-20T10:02:24;76448.53;;;-142.53;97.05
4133;BME280;2080;51.038;7.008;2023-03-20T10:04:54;76448.53;;;-142.53;97.01
4133;BME280;2080;51.038;7.008;2023-03-20T10:07:21;76407.75;;;-142.53;97.75
4133;BME280;2080;51.038;7.008;2023-03-20T10:09:49;76401.91;;;-142.53;97.44
4133;BME280;2080;51.038;7.008;2023-03-20T10:15:01;76335.88;;;-142.53;89.42
4133;BME280;2080;51.038;7.008;2023-03-20T10:17:50;76326.16;;;-142.53;95.62
4133;BME280;2080;51.038;7.008;2023-03-20T10:20:41;76335.88;;;-142.53;91.03
4133;BME280;2080;51.038;7.008;2023-03-20T10:25:45;76322.28;;;-142.53;100.00
4133;BME280;2080;51.038;7.008;2023-03-20T10:34:00;76372.78;;;-142.53;100.00
4133;BME280;2080;51.038;7.008;2023-03-20T10:41:38;76444.66;;;-142.53;91.75
4133;BME280;2080;51.038;7.008;2023-03-20T10:44:16;76440.78;;;-142.53;96.79
4133;BME280;2080;51.038;7.008;2023-03-20T10:46:47;76448.53;;;-142.53;96.75
4133;BME280;2080;51.038;7.008;2023-03-20T10:52:02;76390.28;;;-142.53;94.36
4133;BME280;2080;51.038;7.008;2023-03-20T10:54:43;76403.88;;;-142.53;88.77
4133;BME280;2080;51.038;7.008;2023-03-20T10:57:18;76366.97;;;-142.53;95.42
4133;BME280;2080;51.038;7.008;2023-03-20T10:59:47;76347.53;;;-142.53;94.46
4133;BME280;2080;51.038;7.008;2023-03-20T11:02:15;76390.28;;;-142.53;88.15
4133;BME280;2080;51.038;7.008;2023-03-20T11:04:44;76390.28;;;-142.53;96.99
4133;BME280;2080;51.038;7.008;2023-03-20T11:07:36;76363.06;;;-142.53;89.44
4133;BME280;2080;51.038;7.008;2023-03-20T11:10:06;76332.00;;;-142.53;92.45
4133;BME280;2080;51.038;7.008;2023-03-20T11:14:59;76388.31;;;-142.53;87.71
4133;BME280;2080;51.038;7.008;2023-03-20T11:17:28;76405.81;;;-142.53;90.22
4133;BME280;2080;51.038;7.008;2023-03-20T11:20:04;76396.09;;;-142.53;78.52
4133;BME280;2080;51.038;7.008;2023-03-20T11:22:29;76384.44;;;-142.53;89.54
4133;BME280;2080;51.038;7.008;2023-03-20T11:25:00;76405.81;;;-142.53;85.83
4133;BME280;2080;51.038;7.008;2023-03-20T11:27:32;76413.56;;;-142.53;81.12
4133;BME280;2080;51.038;7.008;2023-03-20T11:30:02;76394.16;;;-142.53;82.51
4133;BME280;2080;51.038;7.008;2023-03-20T11:32:38;76363.06;;;-142.53;89.02
4133;BME280;2080;51.038;7.008;2023-03-20T11:37:54;76343.66;;;-142.53;81.66
4133;BME280;2080;51.038;7.008;2023-03-20T11:40:29;76343.66;;;-142.53;81.91
4133;BME280;2080;51.038;7.008;2023-03-20T11:45:29;76386.38;;;-142.53;75.48
4133;BME280;2080;51.038;7.008;2023-03-20T11:47:59;76396.09;;;-142.53;77.31
4133;BME280;2080;51.038;7.008;2023-03-20T11:50:31;76374.72;;;-142.53;79.50
4133;BME280;2080;51.038;7.008;2023-03-20T11:53:03;76390.28;;;-142.53;78.14
4133;BME280;2080;51.038;7.008;2023-03-20T11:55:31;76390.28;;;-142.53;80.80
4133;BME280;2080;51.038;7.008;2023-03-20T11:57:59;76365.00;;;-142.53;78.63
4133;BME280;2080;51.038;7.008;2023-03-20T12:00:28;76308.69;;;-142.53;80.90
4133;BME280;2080;51.038;7.008;2023-03-20T12:02:54;76275.66;;;-142.53;79.03
4133;BME280;2080;51.038;7.008;2023-03-20T12:05:29;76308.69;;;-142.53;76.63
4133;BME280;2080;51.038;7.008;2023-03-20T12:08:15;76312.56;;;-142.53;75.41
4133;BME280;2080;51.038;7.008;2023-03-20T12:10:52;76308.69;;;-142.53;74.37
4133;BME280;2080;51.038;7.008;2023-03-20T12:13:24;76297.03;;;-142.53;74.84
4133;BME280;2080;51.038;7.008;2023-03-20T12:16:01;76308.69;;;-142.53;74.86
4133;BME280;2080;51.038;7.008;2023-03-20T12:18:36;76304.81;;;-142.53;74.90
4133;BME280;2080;51.038;7.008;2023-03-20T12:26:34;76304.81;;;-142.53;73.82
4133;BME280;2080;51.038;7.008;2023-03-20T12:32:02;76332.00;;;-142.53;71.27
4133;BME280;2080;51.038;7.008;2023-03-20T12:34:36;76357.25;;;-142.53;70.68
4133;BME280;2080;51.038;7.008;2023-03-20T12:37:12;76363.06;;;-142.53;72.48
4133;BME280;2080;51.038;7.008;2023-03-20T12:39:47;76372.78;;;-142.53;74.10
4133;BME280;2080;51.038;7.008;2023-03-20T12:58:22;76421.34;;;-142.53;80.15
4133;BME280;2080;51.038;7.008;2023-03-20T13:01:05;76436.88;;;-142.53;76.41
4133;BME280;2080;51.038;7.008;2023-03-20T13:06:13;76405.81;;;-142.53;78.94
4133;BME280;2080;51.038;7.008;2023-03-20T13:20:18;76149.44;;;-142.53;71.80
4133;BME280;2080;51.038;7.008;2023-03-20T13:28:05;76172.72;;;-142.53;63.62
4133;BME280;2080;51.038;7.008;2023-03-20T13:36:37;76141.66;;;-142.53;67.41
4133;BME280;2080;51.038;7.008;2023-03-20T13:38:58;76153.31;;;-142.53;68.84
4133;BME280;2080;51.038;7.008;2023-03-20T13:41:25;76149.44;;;-142.53;65.47
4133;BME280;2080;51.038;7.008;2023-03-20T13:43:55;76139.72;;;-142.53;65.52
4133;BME280;2080;51.038;7.008;2023-03-20T13:46:28;76106.69;;;-142.53;67.04
4133;BME280;2080;51.038;7.008;2023-03-20T13:49:03;76067.84;;;-142.53;67.00
4133;BME280;2080;51.038;7.008;2023-03-20T13:57:16;76108.63;;;-142.53;65.10
4133;BME280;2080;51.038;7.008;2023-03-20T14:05:17;76071.75;;;-142.53;63.72
4133;BME280;2080;51.038;7.008;2023-03-20T14:07:48;76029.00;;;-142.53;65.76
4133;BME280;2080;51.038;7.008;2023-03-20T14:15:21;75949.38;;;-142.53;63.02
4133;BME280;2080;51.038;7.008;2023-03-20T14:17:50;75962.97;;;-142.53;57.86
4133;BME280;2080;51.038;7.008;2023-03-20T14:22:59;76001.81;;;-142.53;54.09
4133;BME280;2080;51.038;7.008;2023-03-20T14:25:34;76021.25;;;-142.53;57.81
4133;BME280;2080;51.038;7.008;2023-03-20T14:28:28;76054.25;;;-142.53;56.97
4133;BME280;2080;51.038;7.008;2023-03-20T14:33:44;76108.63;;;-142.53;56.82
4133;BME280;2080;51.038;7.008;2023-03-20T14:36:20;76095.03;;;-142.53;61.31
4133;BME280;2080;51.038;7.008;2023-03-20T14:41:59;76100.88;;;-142.53;61.88
4133;BME280;2080;51.038;7.008;2023-03-20T14:48:15;76083.41;;;-142.53;62.42
4133;BME280;2080;51.038;7.008;2023-03-20T14:50:40;76071.75;;;-142.53;64.55
4133;BME280;2080;51.038;7.008;2023-03-20T14:53:24;76038.72;;;-142.53;63.96
4133;BME280;2080;51.038;7.008;2023-03-20T15:04:22;76079.50;;;-142.53;60.53
4133;BME280;2080;51.038;7.008;2023-03-20T15:09:23;76141.66;;;-142.53;64.94
4133;BME280;2080;51.038;7.008;2023-03-20T15:11:50;76135.84;;;-142.53;67.53
4133;BME280;2080;51.038;7.008;2023-03-20T15:14:27;76147.47;;;-142.53;70.52
4133;BME280;2080;51.038;7.008;2023-03-20T15:17:05;76203.81;;;-142.53;69.63
4133;BME280;2080;51.038;7.008;2023-03-20T15:19:31;76196.03;;;-142.53;75.87
4133;BME280;2080;51.038;7.008;2023-03-20T15:21:57;76172.72;;;-142.53;75.95
4133;BME280;2080;51.038;7.008;2023-03-20T15:24:28;76163.03;;;-142.53;73.63
4133;BME280;2080;51.038;7.008;2023-03-20T15:26:57;76145.53;;;-142.53;74.80
4133;BME280;2080;51.038;7.008;2023-03-20T15:29:24;76114.47;;;-142.53;75.43
4133;BME280;2080;51.038;7.008;2023-03-20T15:31:59;76102.81;;;-142.53;75.41
4133;BME280;2080;51.038;7.008;2023-03-20T15:34:29;76079.50;;;-142.53;74.73
4133;BME280;2080;51.038;7.008;2023-03-20T15:36:59;76069.78;;;-142.53;74.94
4133;BME280;2080;51.038;7.008;2023-03-20T15:39:44;76063.97;;;-142.53;74.82
4133;BME280;2080;51.038;7.008;2023-03-20T15:42:19;76073.69;;;-142.53;74.37
4133;BME280;2080;51.038;7.008;2023-03-20T15:44:46;76063.97;;;-142.53;76.61
4133;BME280;2080;51.038;7.008;2023-03-20T15:49:55;76083.41;;;-142.53;72.52
4133;BME280;2080;51.038;7.008;2023-03-20T15:52:37;76083.41;;;-142.53;73.42
4133;BME280;2080;51.038;7.008;2023-03-20T15:55:08;76087.28;;;-142.53;74.42
4133;BME280;2080;51.038;7.008;2023-03-20T15:57:37;76106.69;;;-142.53;75.36
4133;BME280;2080;51.038;7.008;2023-03-20T16:00:12;76093.09;;;-142.53;76.36
4133;BME280;2080;51.038;7.008;2023-03-20T16:02:40;76102.81;;;-142.53;73.60